Time;durP1;ratioP1;P1;durP2;ratioP2;P2;SDS_P1;SDS_P2;PMS_P1;PMS_P2;Temp;Humidity;BMP_temperature;BMP_pressure;BME280_temperature;BME280_humidity;BME280_pressure;Samples;Min_cycle;Max_cycle;Signal;HPM_P1;HPM_P2
2022/11/14 00:02:12;;;;;;;19.52;14.73;;;11.50;1.00;;;;;;6126302;23;20471;-75
2022/11/14 00:04:37;;;;;;;18.45;14.45;;;11.60;1.00;;;;;;6126215;23;20066;-77
2022/11/14 00:07:03;;;;;;;18.70;14.23;;;11.80;1.00;;;;;;6126512;23;20384;-76
2022/11/14 00:09:29;;;;;;;;;;;11.70;1.00;;;;;;6126620;23;20006;-75
2022/11/14 00:11:54;;;;;;;;;;;11.80;1.00;;;;;;6126473;23;19905;-77
2022/11/14 00:14:20;;;;;;;;;;;11.70;1.00;;;;;;6126840;23;19924;-76
2022/11/14 00:16:46;;;;;;;;;;;11.50;1.00;;;;;;6126984;23;19901;-75
2022/11/14 00:19:12;;;;;;;20.48;13.27;;;11.50;1.00;;;;;;6126445;23;19905;-76
2022/11/14 00:21:38;;;;;;;17.15;13.55;;;11.40;1.00;;;;;;6125832;23;20105;-76
2022/11/14 00:24:04;;;;;;;16.60;13.10;;;11.40;1.00;;;;;;6125723;23;20002;-76
2022/11/14 00:26:30;;;;;;;15.95;13.02;;;11.50;1.00;;;;;;6126231;23;20077;-76
2022/11/14 00:28:56;;;;;;;;;;;11.50;1.00;;;;;;6126783;23;20024;-76
2022/11/14 00:31:22;;;;;;;15.98;12.55;;;11.40;1.00;;;;;;6126281;23;19909;-76
2022/11/14 00:33:47;;;;;;;;;;;11.50;1.00;;;;;;6127761;23;20030;-75
2022/11/14 00:36:13;;;;;;;15.70;12.07;;;11.60;1.00;;;;;;6128122;23;20027;-76
2022/11/14 00:38:39;;;;;;;16.80;13.55;;;11.60;1.00;;;;;;6128676;23;20006;-75
2022/11/14 00:41:05;;;;;;;24.88;13.23;;;11.50;1.00;;;;;;6128329;23;20005;-77
2022/11/14 00:43:31;;;;;;;20.42;11.80;;;11.50;1.00;;;;;;6128015;23;20018;-77
2022/11/14 00:45:56;;;;;;;20.55;11.93;;;11.40;1.00;;;;;;6100939;23;20029;-76
2022/11/14 00:48:22;;;;;;;22.92;12.63;;;11.30;1.00;;;;;;6128132;23;20077;-76
2022/11/14 00:50:48;;;;;;;33.83;12.30;;;11.30;1.00;;;;;;6127956;23;20433;-77
2022/11/14 00:53:15;;;;;;;17.77;11.82;;;11.30;1.00;;;;;;6128120;23;20002;-77
2022/11/14 00:55:42;;;;;;;16.42;12.77;;;11.30;1.00;;;;;;6127595;23;20432;-75
2022/11/14 00:58:08;;;;;;;15.35;11.55;;;11.20;1.00;;;;;;6128110;23;20002;-77
2022/11/14 01:00:36;;;;;;;27.10;12.90;;;11.30;1.00;;;;;;6128030;23;20022;-78
2022/11/14 01:03:01;;;;;;;15.07;11.93;;;11.30;1.00;;;;;;6128033;23;20038;-75
2022/11/14 01:05:27;;;;;;;;;;;11.20;1.00;;;;;;6128302;23;19998;-76
2022/11/14 01:07:53;;;;;;;41.75;11.00;;;11.10;1.00;;;;;;6127820;23;19901;-78
2022/11/14 01:10:20;;;;;;;14.02;11.10;;;11.10;1.00;;;;;;6127977;23;20002;-77
2022/11/14 01:12:45;;;;;;;13.10;9.77;;;11.00;1.00;;;;;;6127896;23;20008;-76
2022/11/14 01:15:11;;;;;;;;;;;11.00;1.00;;;;;;6095712;23;20089;-76
2022/11/14 01:17:37;;;;;;;14.15;11.05;;;11.00;1.00;;;;;;6128137;23;19951;-76
2022/11/14 01:20:04;;;;;;;14.02;10.73;;;10.90;1.00;;;;;;6094863;23;20471;-77
2022/11/14 01:22:30;;;;;;;12.90;10.13;;;10.80;1.00;;;;;;6127437;23;20029;-76
2022/11/14 01:24:57;;;;;;;;;;;10.80;1.00;;;;;;6128605;23;20002;-77
2022/11/14 01:27:24;;;;;;;14.30;10.90;;;11.00;1.00;;;;;;6127442;23;19968;-78
2022/11/14 01:29:49;;;;;;;15.32;10.35;;;10.90;1.00;;;;;;6126614;23;20002;-78
2022/11/14 01:32:15;;;;;;;;;;;10.70;1.00;;;;;;6128150;23;20012;-76
2022/11/14 01:34:41;;;;;;;13.85;10.07;;;10.70;1.00;;;;;;6127474;23;20000;-77
2022/11/14 01:37:07;;;;;;;13.05;10.00;;;10.60;1.00;;;;;;6127391;23;19998;-77
2022/11/14 01:39:32;;;;;;;;;;;10.80;1.00;;;;;;6128057;23;20002;-76
2022/11/14 01:41:58;;;;;;;;;;;10.90;1.00;;;;;;6128318;23;20375;-76
2022/11/14 01:44:39;;;;;;;;;;;11.00;1.00;;;;;;6128073;23;19928;-75
2022/11/14 01:47:05;;;;;;;13.32;9.68;;;11.10;1.00;;;;;;6127317;23;19928;-75
2022/11/14 01:49:37;;;;;;;12.30;9.23;;;11.00;99.90;;;;;;6127325;23;20005;-76
2022/11/14 01:52:36;;;;;;;11.98;8.68;;;11.10;99.90;;;;;;6125513;23;20349;-77
2022/11/14 01:55:05;;;;;;;12.18;8.88;;;11.10;99.90;;;;;;6124334;23;20010;-76
2022/11/14 01:57:43;;;;;;;12.20;8.68;;;11.20;99.90;;;;;;6127367;23;20009;-76
2022/11/14 02:00:11;;;;;;;13.57;10.23;;;11.30;99.90;;;;;;6127052;23;19998;-76
2022/11/14 02:02:37;;;;;;;13.75;10.02;;;11.30;99.90;;;;;;6126082;23;20383;-76
2022/11/14 02:05:07;;;;;;;14.20;10.10;;;11.40;99.90;;;;;;6127207;23;20001;-75
2022/11/14 02:07:36;;;;;;;16.65;11.05;;;11.40;97.60;;;;;;6127432;23;20006;-76
2022/11/14 02:10:07;;;;;;;12.95;10.00;;;11.10;1.00;;;;;;6127035;23;20017;-75
2022/11/14 02:12:33;;;;;;;13.40;10.05;;;11.00;79.70;;;;;;6127226;23;20002;-76
2022/11/14 02:14:59;;;;;;;;;;;11.10;99.90;;;;;;6127800;23;20500;-76
2022/11/14 02:17:25;;;;;;;14.00;10.43;;;11.10;95.40;;;;;;6125691;23;19905;-76
2022/11/14 02:19:52;;;;;;;;;;;11.10;78.30;;;;;;6101464;23;20065;-77
2022/11/14 02:22:18;;;;;;;13.98;10.98;;;11.10;13.10;;;;;;6124641;23;20308;-76
2022/11/14 02:24:44;;;;;;;;;;;11.20;99.90;;;;;;6127922;23;20056;-75
2022/11/14 02:27:10;;;;;;;;;;;11.30;99.90;;;;;;6127707;23;19983;-78
2022/11/14 02:29:36;;;;;;;16.10;11.35;;;11.20;40.30;;;;;;6126794;23;19900;-76
2022/11/14 02:32:02;;;;;;;;;;;11.00;47.60;;;;;;6126259;23;20021;-76
2022/11/14 02:34:28;;;;;;;12.27;9.73;;;10.70;99.90;;;;;;6126939;23;19901;-77
2022/11/14 02:36:55;;;;;;;14.23;9.63;;;10.70;99.90;;;;;;6127555;23;19998;-75
2022/11/14 02:39:20;;;;;;;19.75;9.85;;;10.70;99.90;;;;;;6126794;23;20459;-76
2022/11/14 02:41:46;;;;;;;12.77;9.88;;;10.50;99.90;;;;;;6127008;23;20002;-75
2022/11/14 02:44:12;;;;;;;13.27;10.00;;;10.40;64.40;;;;;;6127255;23;20007;-75
2022/11/14 02:46:38;;;;;;;14.77;9.35;;;10.40;99.90;;;;;;6125140;23;20010;-75
2022/11/14 02:49:05;;;;;;;13.30;9.98;;;10.40;99.90;;;;;;6126875;23;20028;-75
2022/11/14 02:51:30;;;;;;;12.13;9.30;;;10.40;99.90;;;;;;6126918;23;20020;-77
2022/11/14 02:53:56;;;;;;;;;;;10.50;99.90;;;;;;6127779;23;20033;-77
2022/11/14 02:56:21;;;;;;;;;;;10.60;99.90;;;;;;6127042;23;19905;-76
2022/11/14 02:58:47;;;;;;;14.68;10.23;;;10.40;88.30;;;;;;6126829;23;20328;-76
2022/11/14 03:01:13;;;;;;;12.55;10.07;;;10.20;99.90;;;;;;6126304;23;20002;-76
2022/11/14 03:03:38;;;;;;;12.55;9.85;;;10.40;99.90;;;;;;6127009;23;19998;-75
2022/11/14 03:06:05;;;;;;;13.60;9.43;;;10.70;99.90;;;;;;6127068;23;20456;-76
2022/11/14 03:08:31;;;;;;;13.20;10.00;;;10.90;99.90;;;;;;6126760;23;20033;-76
2022/11/14 03:11:02;;;;;;;;;;;10.80;99.90;;;;;;6126900;23;20005;-76
2022/11/14 03:13:29;;;;;;;13.55;9.95;;;10.50;99.90;;;;;;6126676;23;20020;-76
2022/11/14 03:15:55;;;;;;;13.90;10.30;;;10.20;99.90;;;;;;6126714;23;19998;-75
2022/11/14 03:18:21;;;;;;;;;;;10.20;1.00;;;;;;6127252;23;20310;-75
2022/11/14 03:20:46;;;;;;;16.58;9.63;;;10.10;1.00;;;;;;6100414;23;19924;-76
2022/11/14 03:23:12;;;;;;;12.38;9.50;;;9.90;1.00;;;;;;6126330;23;20013;-75
2022/11/14 03:25:38;;;;;;;12.07;8.65;;;10.00;1.00;;;;;;6126561;23;20065;-77
2022/11/14 03:28:04;;;;;;;12.35;8.82;;;10.20;1.00;;;;;;6126799;23;20005;-75
2022/11/14 03:30:30;;;;;;;14.50;9.98;;;10.40;1.00;;;;;;6126107;23;20002;-76
2022/11/14 03:32:56;;;;;;;12.23;8.82;;;10.60;1.00;;;;;;6126738;23;20056;-75
2022/11/14 03:35:23;;;;;;;11.40;8.52;;;10.60;99.90;;;;;;6126299;23;20002;-76
2022/11/14 03:37:48;;;;;;;11.32;8.10;;;10.40;99.90;;;;;;6126286;23;20033;-76
2022/11/14 03:40:14;;;;;;;10.60;7.63;;;10.50;99.90;;;;;;6124627;23;20089;-75
2022/11/14 03:42:40;;;;;;;12.85;9.40;;;10.50;99.90;;;;;;6126489;23;20012;-75
2022/11/14 03:45:06;;;;;;;11.18;8.10;;;10.40;29.30;;;;;;6126585;23;20057;-75
2022/11/14 03:47:31;;;;;;;;;;;10.40;99.90;;;;;;6125109;23;20017;-77
2022/11/14 03:49:57;;;;;;;11.93;7.93;;;10.30;26.60;;;;;;6126195;23;19901;-77
2022/11/14 03:52:24;;;;;;;11.20;8.32;;;10.20;1.00;;;;;;6126506;23;20006;-76
2022/11/14 03:54:51;;;;;;;10.93;7.40;;;10.20;99.90;;;;;;6126358;23;19998;-77
2022/11/14 03:57:16;;;;;;;12.55;8.40;;;10.30;99.90;;;;;;6126543;23;20426;-76
2022/11/14 03:59:42;;;;;;;10.77;7.40;;;10.20;67.50;;;;;;6124538;23;20006;-76
2022/11/14 04:02:08;;;;;;;10.05;6.82;;;10.30;99.90;;;;;;6126471;23;20002;-76
2022/11/14 04:04:34;;;;;;;11.82;8.55;;;10.40;91.70;;;;;;6126332;23;20005;-76
2022/11/14 04:06:59;;;;;;;11.10;8.10;;;10.10;22.30;;;;;;6124629;23;20006;-75
2022/11/14 04:09:25;;;;;;;10.93;8.15;;;9.90;99.90;;;;;;6126343;23;20027;-75
2022/11/14 04:11:51;;;;;;;11.88;7.55;;;9.70;99.90;;;;;;6126161;23;20054;-78
2022/11/14 04:14:16;;;;;;;10.75;7.78;;;9.90;99.90;;;;;;6126415;23;20433;-75
2022/11/14 04:16:42;;;;;;;11.57;8.43;;;10.00;99.90;;;;;;6126271;23;20034;-75
2022/11/14 04:19:08;;;;;;;12.57;8.10;;;10.00;99.90;;;;;;6099275;23;20006;-78
2022/11/14 04:21:33;;;;;;;10.20;7.28;;;10.10;99.90;;;;;;6125203;23;20014;-75
2022/11/14 04:23:59;;;;;;;12.00;8.07;;;10.30;99.90;;;;;;6124875;23;20025;-77
2022/11/14 04:26:25;;;;;;;12.57;8.38;;;10.40;65.30;;;;;;6124833;23;20010;-76
2022/11/14 04:28:50;;;;;;;10.90;7.72;;;10.50;1.40;;;;;;6126344;23;20381;-77
2022/11/14 04:31:16;;;;;;;12.20;8.07;;;10.50;1.00;;;;;;6125794;23;20002;-77
2022/11/14 04:33:42;;;;;;;12.13;7.47;;;10.30;1.00;;;;;;6126366;23;20028;-75
2022/11/14 04:36:08;;;;;;;10.68;7.18;;;10.40;1.00;;;;;;6126318;23;20060;-75
2022/11/14 04:38:33;;;;;;;12.48;9.07;;;10.50;1.00;;;;;;6124826;23;20073;-75
2022/11/14 04:40:59;;;;;;;12.98;8.70;;;10.30;1.00;;;;;;6125800;23;20032;-75
2022/11/14 04:43:25;;;;;;;11.45;8.27;;;9.90;16.00;;;;;;6126264;23;20006;-77
2022/11/14 04:45:50;;;;;;;11.20;7.93;;;9.90;99.90;;;;;;6126082;23;20006;-77
2022/11/14 04:48:16;;;;;;;11.68;8.20;;;10.20;99.90;;;;;;6126276;23;20002;-75
2022/11/14 04:50:43;;;;;;;11.40;8.20;;;10.30;1.00;;;;;;6125762;23;20110;-76
2022/11/14 04:53:09;;;;;;;12.60;8.10;;;10.30;1.00;;;;;;6126125;23;20122;-78
2022/11/14 04:55:35;;;;;;;12.10;8.15;;;10.10;1.00;;;;;;6126522;23;19998;-77
2022/11/14 04:58:01;;;;;;;11.98;8.85;;;10.10;1.00;;;;;;6126079;23;20433;-77
2022/11/14 05:00:27;;;;;;;10.60;7.70;;;9.80;1.00;;;;;;6126204;23;20009;-77
2022/11/14 05:02:53;;;;;;;10.32;7.30;;;9.70;65.00;;;;;;6126285;23;20421;-77
2022/11/14 05:05:18;;;;;;;10.07;7.10;;;9.80;99.90;;;;;;6126058;23;20032;-77
2022/11/14 05:07:44;;;;;;;12.18;8.00;;;10.00;48.40;;;;;;6126175;23;20433;-76
2022/11/14 05:10:10;;;;;;;12.25;8.30;;;9.90;1.00;;;;;;6125778;23;20002;-75
2022/11/14 05:12:35;;;;;;;11.05;7.97;;;9.90;1.00;;;;;;6125991;23;20333;-75
2022/11/14 05:15:01;;;;;;;10.75;7.63;;;9.80;11.90;;;;;;6125991;23;19994;-76
2022/11/14 05:17:27;;;;;;;10.80;7.28;;;9.90;79.70;;;;;;6125957;23;20001;-76
2022/11/14 05:19:53;;;;;;;10.32;7.35;;;10.10;52.60;;;;;;6095721;23;20061;-78
2022/11/14 05:22:19;;;;;;;10.57;7.65;;;10.10;1.00;;;;;;6127432;23;20017;-76
2022/11/14 05:24:44;;;;;;;10.40;7.18;;;10.20;1.00;;;;;;6127723;23;20433;-77
2022/11/14 05:27:10;;;;;;;10.25;7.30;;;10.20;1.00;;;;;;6127726;23;20006;-75
2022/11/14 05:29:36;;;;;;;11.43;7.60;;;10.10;1.00;;;;;;6127732;23;20002;-76
2022/11/14 05:32:02;;;;;;;11.23;7.57;;;10.20;1.00;;;;;;6127175;23;20057;-75
2022/11/14 05:34:27;;;;;;;12.25;8.55;;;10.20;1.00;;;;;;6127275;23;20061;-76
2022/11/14 05:36:53;;;;;;;12.20;8.43;;;10.10;1.00;;;;;;6128564;23;20417;-77
2022/11/14 05:39:19;;;;;;;14.07;8.25;;;10.10;1.00;;;;;;6127655;23;20392;-76
2022/11/14 05:41:44;;;;;;;12.63;7.85;;;9.90;1.00;;;;;;6127231;23;20077;-76
2022/11/14 05:44:10;;;;;;;13.10;8.68;;;9.90;1.00;;;;;;6126075;23;20057;-77
2022/11/14 05:46:36;;;;;;;11.65;8.32;;;10.00;7.50;;;;;;6127479;23;20006;-77
2022/11/14 05:49:02;;;;;;;12.05;8.43;;;10.00;1.00;;;;;;6127628;23;20006;-76
2022/11/14 05:51:27;;;;;;;13.63;9.30;;;10.10;1.20;;;;;;6125427;23;20010;-75
2022/11/14 05:53:54;;;;;;;14.70;9.80;;;10.20;1.00;;;;;;6127532;23;20385;-75
2022/11/14 05:56:20;;;;;;;12.63;8.38;;;10.30;1.00;;;;;;6127609;23;20044;-77
2022/11/14 05:58:46;;;;;;;13.48;9.57;;;10.20;1.00;;;;;;6127624;23;20081;-76
2022/11/14 06:01:17;;;;;;;13.93;9.20;;;10.30;1.00;;;;;;6127025;23;20218;-77
2022/11/14 06:03:47;;;;;;;11.43;8.15;;;10.40;1.00;;;;;;6127489;23;20006;-77
2022/11/14 06:06:16;;;;;;;13.88;9.20;;;10.40;1.10;;;;;;6127305;23;20041;-76
2022/11/14 06:08:41;;;;;;;12.95;10.00;;;10.40;1.00;;;;;;6127720;23;20006;-78
2022/11/14 06:11:10;;;;;;;14.05;9.02;;;10.30;1.00;;;;;;6124982;23;20467;-77
2022/11/14 06:13:36;;;;;;;14.45;9.13;;;10.30;12.70;;;;;;6127497;23;20005;-78
2022/11/14 06:16:04;;;;;;;14.77;9.52;;;10.40;1.00;;;;;;6127823;23;19998;-76
2022/11/14 06:18:31;;;;;;;15.73;9.13;;;10.40;1.00;;;;;;6127511;23;20002;-77
2022/11/14 06:21:06;;;;;;;12.90;9.52;;;10.40;1.00;;;;;;6099155;23;20018;-78
2022/11/14 06:23:31;;;;;;;12.32;8.65;;;10.50;43.30;;;;;;6126962;23;20084;-77
2022/11/14 06:26:01;;;;;;;;;;;10.50;99.90;;;;;;6128070;23;20002;-77
2022/11/14 06:28:27;;;;;;;14.65;9.25;;;10.60;61.20;;;;;;6127469;23;19951;-78
2022/11/14 06:30:58;;;;;;;12.68;8.45;;;10.60;8.20;;;;;;6127380;23;20249;-76
2022/11/14 06:33:24;;;;;;;12.95;9.02;;;10.60;20.70;;;;;;6127357;23;20056;-78
2022/11/14 06:35:49;;;;;;;;;;;10.60;41.40;;;;;;6127753;23;20005;-75
2022/11/14 06:38:15;;;;;;;11.98;8.13;;;10.60;48.00;;;;;;6127400;23;19908;-77
2022/11/14 06:40:40;;;;;;;15.07;9.00;;;10.60;90.60;;;;;;6126883;23;20441;-76
2022/11/14 06:43:06;;;;;;;13.95;8.95;;;10.70;21.50;;;;;;6127313;23;20034;-76
2022/11/14 06:45:32;;;;;;;13.25;8.55;;;10.70;23.60;;;;;;6126952;23;20038;-77
2022/11/14 06:47:58;;;;;;;11.70;8.05;;;10.90;83.00;;;;;;6127116;23;20341;-77
2022/11/14 06:50:24;;;;;;;12.60;8.65;;;10.90;1.00;;;;;;6127022;23;20002;-79
2022/11/14 06:52:50;;;;;;;;;;;11.00;1.00;;;;;;6127383;23;20009;-77
2022/11/14 06:55:16;;;;;;;11.32;8.07;;;11.20;1.00;;;;;;6127135;23;20375;-75
2022/11/14 06:57:42;;;;;;;13.57;8.70;;;11.30;1.00;;;;;;6126613;23;20471;-77
2022/11/14 07:00:08;;;;;;;17.60;10.63;;;11.20;1.00;;;;;;6127174;23;19998;-78
2022/11/14 07:02:33;;;;;;;;;;;11.20;1.00;;;;;;6126881;23;20326;-78
2022/11/14 07:04:59;;;;;;;13.45;8.38;;;11.00;1.00;;;;;;6127021;23;19908;-79
2022/11/14 07:07:25;;;;;;;15.38;9.02;;;10.90;1.00;;;;;;6127342;23;20388;-78
2022/11/14 07:09:50;;;;;;;13.65;9.10;;;10.80;1.00;;;;;;6125226;23;20010;-77
2022/11/14 07:12:16;;;;;;;13.63;9.05;;;10.80;1.00;;;;;;6126441;23;20445;-77
2022/11/14 07:14:42;;;;;;;13.05;9.10;;;10.80;1.00;;;;;;6127085;23;20077;-78
2022/11/14 07:17:07;;;;;;;14.63;8.77;;;10.80;1.00;;;;;;6127183;23;20005;-75
2022/11/14 07:19:34;;;;;;;13.48;8.75;;;10.80;1.00;;;;;;6126895;23;20381;-77
2022/11/14 07:21:59;;;;;;;;;;;10.80;9.70;;;;;;6092902;23;20026;-78
2022/11/14 07:24:25;;;;;;;11.52;7.90;;;10.90;26.90;;;;;;6125483;23;19907;-76
2022/11/14 07:26:53;;;;;;;11.57;8.05;;;10.90;99.90;;;;;;6126900;23;20073;-76
2022/11/14 07:29:19;;;;;;;12.35;7.97;;;11.00;99.90;;;;;;6126643;23;20010;-76
2022/11/14 07:31:45;;;;;;;;;;;11.00;99.90;;;;;;6126909;23;20012;-77
2022/11/14 07:34:10;;;;;;;;;;;11.00;99.90;;;;;;6127306;23;20248;-77
2022/11/14 07:36:36;;;;;;;;;;;11.10;86.20;;;;;;6127638;23;19923;-78
2022/11/14 07:39:02;;;;;;;14.77;8.60;;;11.00;93.40;;;;;;6126640;23;20355;-76
2022/11/14 07:41:27;;;;;;;12.00;8.20;;;11.10;99.90;;;;;;6126112;23;20137;-76
2022/11/14 07:43:53;;;;;;;13.43;9.00;;;11.10;99.90;;;;;;6127133;23;20511;-78
2022/11/14 07:46:19;;;;;;;11.93;8.38;;;11.20;99.90;;;;;;6126280;23;20029;-78
2022/11/14 07:48:45;;;;;;;12.23;8.38;;;11.20;99.90;;;;;;6126916;23;20003;-78
2022/11/14 07:51:15;;;;;;;;;;;11.20;99.90;;;;;;6126997;23;20002;-78
2022/11/14 07:53:40;;;;;;;14.75;8.70;;;11.30;99.90;;;;;;6126554;23;20240;-77
2022/11/14 07:56:10;;;;;;;;;;;11.20;99.90;;;;;;6127081;23;19998;-77
2022/11/14 07:58:37;;;;;;;13.60;9.10;;;11.30;99.90;;;;;;6126724;23;19940;-78
2022/11/14 08:01:05;;;;;;;13.40;8.57;;;11.30;99.90;;;;;;6126351;23;20385;-76
2022/11/14 08:03:31;;;;;;;16.55;9.02;;;11.30;99.90;;;;;;6126881;23;20004;-77
2022/11/14 08:06:08;;;;;;;15.30;9.40;;;11.30;99.90;;;;;;6125031;23;20012;-77
2022/11/14 08:08:35;;;;;;;18.92;9.23;;;11.30;99.90;;;;;;6126615;23;19998;-76
2022/11/14 08:11:01;;;;;;;19.98;9.55;;;11.30;99.90;;;;;;6125910;23;20002;-77
2022/11/14 08:13:27;;;;;;;15.50;9.90;;;11.20;99.90;;;;;;6126349;23;20029;-76
2022/11/14 08:15:54;;;;;;;15.02;10.15;;;11.20;99.90;;;;;;6126556;23;19998;-76
2022/11/14 08:18:20;;;;;;;14.40;9.50;;;11.20;99.90;;;;;;6126415;23;20025;-77
2022/11/14 08:20:45;;;;;;;;;;;11.20;99.90;;;;;;6100436;23;20010;-77
2022/11/14 08:23:12;;;;;;;15.00;9.23;;;11.30;99.90;;;;;;6125909;23;19913;-77
2022/11/14 08:25:38;;;;;;;14.93;10.20;;;11.40;99.90;;;;;;6126680;23;20002;-77
2022/11/14 08:28:04;;;;;;;15.48;9.40;;;11.40;99.90;;;;;;6126439;23;20002;-78
2022/11/14 08:30:30;;;;;;;;;;;11.50;99.90;;;;;;6127064;23;20064;-76
2022/11/14 08:32:56;;;;;;;;;;;11.50;99.90;;;;;;6126384;23;20324;-76
2022/11/14 08:35:22;;;;;;;14.57;9.25;;;11.50;99.90;;;;;;6124628;23;19901;-78
2022/11/14 08:37:47;;;;;;;;;;;11.70;99.90;;;;;;6126921;23;20061;-76
2022/11/14 08:40:13;;;;;;;12.95;9.10;;;11.80;99.90;;;;;;6126734;23;19936;-76
2022/11/14 08:42:39;;;;;;;14.82;10.00;;;11.90;73.70;;;;;;6125879;23;19998;-77
2022/11/14 08:45:05;;;;;;;;;;;12.00;62.50;;;;;;6126846;23;20464;-77
2022/11/14 08:47:31;;;;;;;15.18;9.38;;;12.00;47.60;;;;;;6126622;23;19908;-78
2022/11/14 08:49:56;;;;;;;17.13;9.05;;;12.10;93.80;;;;;;6126456;23;20005;-78
2022/11/14 08:52:22;;;;;;;;;;;12.20;46.70;;;;;;6126353;23;20330;-77
2022/11/14 08:54:48;;;;;;;13.98;9.05;;;12.10;18.70;;;;;;6127848;23;19959;-75
2022/11/14 08:57:14;;;;;;;17.52;10.60;;;12.20;82.40;;;;;;6126471;23;20002;-78
2022/11/14 08:59:40;;;;;;;;;;;12.20;6.10;;;;;;6127331;23;20006;-76
2022/11/14 09:02:08;;;;;;;15.65;9.45;;;12.40;27.20;;;;;;6127855;23;19901;-76
2022/11/14 09:04:33;;;;;;;16.23;9.95;;;12.50;1.00;;;;;;6126719;23;20088;-76
2022/11/14 09:06:59;;;;;;;;;;;12.40;1.00;;;;;;6128821;23;20005;-76
2022/11/14 09:09:25;;;;;;;15.25;9.40;;;12.40;1.00;;;;;;6128359;23;19905;-75
2022/11/14 09:11:50;;;;;;;15.38;9.43;;;12.30;1.00;;;;;;6127909;23;20012;-77
2022/11/14 09:14:16;;;;;;;16.50;9.95;;;12.40;1.00;;;;;;6128018;23;20441;-79
2022/11/14 09:16:41;;;;;;;;;;;12.40;1.00;;;;;;6128478;23;20002;-77
2022/11/14 09:19:07;;;;;;;17.70;8.90;;;12.30;1.00;;;;;;6128184;23;19904;-78
2022/11/14 09:21:33;;;;;;;16.42;9.38;;;12.30;1.00;;;;;;6093986;23;20073;-76
2022/11/14 09:23:59;;;;;;;17.20;9.65;;;12.30;1.00;;;;;;6127739;23;20018;-76
2022/11/14 09:26:24;;;;;;;16.80;9.45;;;12.30;1.00;;;;;;6128219;23;20429;-76
2022/11/14 09:28:50;;;;;;;;;;;12.40;1.00;;;;;;6128422;23;20009;-76
2022/11/14 09:31:16;;;;;;;17.63;9.00;;;12.50;1.00;;;;;;6127649;23;20280;-79
2022/11/14 09:33:41;;;;;;;15.70;9.63;;;12.60;1.00;;;;;;6127797;23;19998;-78
2022/11/14 09:36:09;;;;;;;;;;;12.70;1.00;;;;;;6128714;23;20069;-77
2022/11/14 09:38:35;;;;;;;17.08;9.07;;;12.60;1.00;;;;;;6128123;23;19901;-78
2022/11/14 09:41:14;;;;;;;;;;;12.50;25.60;;;;;;6128273;23;20008;-78
2022/11/14 09:44:16;;;;;;;17.08;9.48;;;12.60;52.90;;;;;;6127758;23;19901;-77
2022/11/14 09:46:48;;;;;;;17.45;9.05;;;12.70;59.60;;;;;;6128008;23;20090;-78
2022/11/14 09:49:31;;;;;;;17.65;9.20;;;12.90;76.10;;;;;;6128097;23;20020;-75
2022/11/14 09:52:11;;;;;;;20.67;9.68;;;13.20;58.90;;;;;;6127484;23;20009;-77
2022/11/14 09:54:50;;;;;;;16.52;9.85;;;13.50;1.00;;;;;;6127617;23;20006;-77
2022/11/14 09:57:19;;;;;;;16.63;9.35;;;13.70;1.00;;;;;;6127634;23;20001;-77
2022/11/14 09:59:44;;;;;;;15.05;9.07;;;13.80;1.00;;;;;;6127828;23;20023;-78
2022/11/14 10:02:22;;;;;;;;;;;13.90;1.00;;;;;;6127968;23;20148;-76
2022/11/14 10:05:43;;;;;;;17.48;9.43;;;13.70;1.00;;;;;;6127538;23;19901;-78
2022/11/14 10:08:36;;;;;;;18.08;10.05;;;13.70;1.00;;;;;;6075033;23;20006;-78
2022/11/14 10:11:29;;;;;;;18.45;10.63;;;13.60;1.00;;;;;;6127170;23;20006;-77
2022/11/14 10:14:18;;;;;;;15.18;10.13;;;13.40;1.00;;;;;;6125884;23;20086;-76
2022/11/14 10:17:33;;;;;;;16.73;9.88;;;13.20;1.00;;;;;;6127824;23;20002;-77
2022/11/14 10:20:38;;;;;;;17.27;10.52;;;13.00;32.30;;;;;;6080238;23;20009;-77
2022/11/14 10:23:10;;;;;;;19.00;10.90;;;13.10;31.00;;;;;;6126623;23;20487;-80
2022/11/14 10:25:43;;;;;;;19.75;10.95;;;13.10;35.20;;;;;;6127402;23;20030;-76
2022/11/14 10:28:14;;;;;;;18.17;10.63;;;13.30;62.40;;;;;;6127520;23;20002;-78
2022/11/14 10:30:57;;;;;;;20.67;10.35;;;13.40;29.50;;;;;;6127356;23;20006;-77
2022/11/14 10:33:29;;;;;;;19.05;11.15;;;13.70;87.00;;;;;;6127120;23;20010;-77
2022/11/14 10:36:20;;;;;;;17.50;10.73;;;13.80;1.00;;;;;;6127205;23;20001;-77
2022/11/14 10:39:00;;;;;;;18.45;10.98;;;13.90;1.00;;;;;;6127224;23;20008;-78
2022/11/14 10:41:27;;;;;;;17.65;10.82;;;13.90;1.00;;;;;;6127526;23;20446;-75
2022/11/14 10:43:54;;;;;;;20.25;11.07;;;13.80;1.00;;;;;;6127297;23;20034;-77
2022/11/14 10:46:29;;;;;;;17.85;10.82;;;13.70;43.10;;;;;;6127297;23;20008;-76
2022/11/14 10:48:55;;;;;;;17.83;10.95;;;13.60;23.20;;;;;;6127103;23;20002;-76
2022/11/14 10:51:28;;;;;;;;;;;13.70;99.90;;;;;;6127570;23;20061;-78
2022/11/14 10:54:12;;;;;;;18.23;10.88;;;13.80;99.90;;;;;;6127164;23;19908;-78
2022/11/14 10:56:48;;;;;;;16.65;9.60;;;14.80;22.80;;;;;;6127227;23;20005;-76
2022/11/14 10:59:15;;;;;;;13.70;7.90;;;16.80;99.90;;;;;;6126866;23;20002;-77
2022/11/14 11:01:42;;;;;;;15.43;7.32;;;18.10;99.90;;;;;;6126951;23;20337;-78
2022/11/14 11:04:19;;;;;;;13.93;6.53;;;18.10;99.90;;;;;;6127105;23;20377;-78
2022/11/14 11:06:45;;;;;;;10.90;5.65;;;17.70;99.90;;;;;;6127237;23;20026;-77
2022/11/14 11:12:06;;;;;;;11.18;5.03;;;17.70;99.90;;;;;;6126422;23;20013;-77
2022/11/14 11:14:33;;;;;;;8.52;4.15;;;17.50;99.90;;;;;;6127037;23;20002;-77
2022/11/14 11:17:11;;;;;;;9.25;4.20;;;18.60;99.90;;;;;;6126678;23;20012;-76
2022/11/14 11:19:38;;;;;;;8.07;3.72;;;19.00;99.90;;;;;;6126866;23;20041;-77
2022/11/14 11:22:21;;;;;;;8.05;3.90;;;18.70;99.90;;;;;;6088901;23;20026;-78
2022/11/14 11:24:47;;;;;;;7.13;3.65;;;18.00;99.90;;;;;;6127089;23;20006;-76
2022/11/14 11:27:21;;;;;;;9.15;4.07;;;17.10;99.90;;;;;;6126797;23;20008;-77
2022/11/14 11:30:22;;;;;;;12.27;6.13;;;16.50;99.90;;;;;;6126897;23;20449;-77
2022/11/14 11:32:47;;;;;;;15.10;7.10;;;16.50;99.90;;;;;;6126422;23;20006;-76
2022/11/14 11:35:16;;;;;;;7.68;3.20;;;17.40;99.90;;;;;;6126385;23;20484;-75
2022/11/14 11:37:56;;;;;;;7.65;2.90;;;16.70;99.90;;;;;;6126840;23;19998;-74
2022/11/14 11:40:25;;;;;;;6.13;3.05;;;16.00;99.90;;;;;;6126741;23;20473;-77
2022/11/14 11:43:30;;;;;;;6.47;2.70;;;15.60;99.90;;;;;;6126351;23;20556;-77
2022/11/14 11:45:59;;;;;;;5.05;2.42;;;15.90;99.90;;;;;;6126633;23;20006;-74
2022/11/14 11:48:38;;;;;;;5.57;2.60;;;16.20;99.90;;;;;;6126578;23;20021;-77
2022/11/14 11:51:09;;;;;;;6.28;2.80;;;16.00;99.90;;;;;;6126565;23;20056;-75
2022/11/14 11:53:54;;;;;;;5.65;2.50;;;15.90;99.90;;;;;;6126280;23;20053;-78
2022/11/14 11:56:30;;;;;;;4.78;2.30;;;15.50;99.90;;;;;;6126623;23;20053;-77
2022/11/14 11:59:27;;;;;;;4.63;1.90;;;15.30;99.90;;;;;;6126219;23;20398;-79
2022/11/14 12:01:54;;;;;;;4.57;1.90;;;15.10;99.90;;;;;;6126554;23;20006;-77
2022/11/14 12:04:20;;;;;;;2.97;1.70;;;15.10;99.90;;;;;;6126492;23;20341;-76
2022/11/14 12:07:03;;;;;;;4.75;1.42;;;14.90;99.90;;;;;;6126680;23;20384;-77
2022/11/14 12:09:35;;;;;;;3.05;1.50;;;14.80;99.90;;;;;;6126648;23;20073;-76
2022/11/14 12:12:25;;;;;;;2.15;1.20;;;14.80;99.90;;;;;;6126197;23;20006;-76
2022/11/14 12:15:04;;;;;;;2.78;1.20;;;14.70;99.90;;;;;;6095855;23;20025;-78
2022/11/14 12:18:01;;;;;;;2.00;1.20;;;14.60;99.90;;;;;;6126529;23;20433;-77
2022/11/14 12:20:54;;;;;;;4.32;0.90;;;14.80;99.90;;;;;;6100716;23;20008;-77
2022/11/14 12:23:50;;;;;;;2.83;1.33;;;15.20;99.90;;;;;;6088626;23;20073;-77
2022/11/14 12:26:47;;;;;;;1.98;1.00;;;15.70;99.90;;;;;;6126459;23;20033;-79
2022/11/14 12:29:34;;;;;;;2.38;1.10;;;15.70;99.90;;;;;;6128271;23;20038;-76
2022/11/14 12:32:06;;;;;;;2.15;1.13;;;15.60;99.90;;;;;;6128739;23;20013;-77
2022/11/14 12:34:37;;;;;;;3.40;1.40;;;16.10;99.90;;;;;;6128234;23;20025;-76
2022/11/14 12:37:29;;;;;;;3.40;1.20;;;18.40;99.90;;;;;;6128706;23;20001;-76
2022/11/14 12:40:04;;;;;;;15.82;8.57;;;20.60;29.90;;;;;;6128723;23;20017;-76
2022/11/14 12:42:31;;;;;;;6.72;2.85;;;19.50;39.90;;;;;;6127934;23;20010;-77
2022/11/14 12:44:57;;;;;;;3.60;1.40;;;18.20;78.90;;;;;;6128544;23;20002;-78
2022/11/14 12:47:24;;;;;;;5.07;1.40;;;17.10;98.00;;;;;;6128034;23;20013;-77
2022/11/14 12:49:53;;;;;;;2.72;1.10;;;16.20;99.90;;;;;;6128402;23;20010;-76
2022/11/14 12:52:43;;;;;;;4.65;1.30;;;15.60;99.90;;;;;;6127805;23;20092;-78
2022/11/14 12:55:24;;;;;;;2.67;1.25;;;15.30;99.90;;;;;;6128379;23;20006;-76
2022/11/14 12:58:29;;;;;;;5.72;1.30;;;15.00;99.90;;;;;;6128249;23;20318;-76
2022/11/14 13:01:04;;;;;;;2.95;1.20;;;14.60;99.90;;;;;;6125951;23;20429;-77
2022/11/14 13:03:40;;;;;;;3.67;1.20;;;14.60;99.90;;;;;;6126240;23;20013;-77
2022/11/14 13:06:28;;;;;;;6.20;1.27;;;14.80;99.90;;;;;;6128627;23;20002;-76
2022/11/14 13:09:22;;;;;;;6.15;1.50;;;14.90;99.90;;;;;;6126295;23;20445;-76
2022/11/14 13:23:05;;;;;;;6.47;1.50;;;22.70;1.00;;;;;;6089865;23;20492;-77